sensor_id;sensor_type;location;lat;lon;timestamp;pressure;altitude;pressure_sealevel;temperature;humidity
9839;BME280;4958;48.150;11.506;2023-05-03T00:11:13;96282.97;;;10.68;86.20
9839;BME280;4958;48.150;11.506;2023-05-03T00:20:30;96283.59;;;10.62;84.60
9839;BME280;4958;48.150;11.506;2023-05-03T00:24:45;96273.47;;;10.52;85.52
9839;BME280;4958;48.150;11.506;2023-05-03T00:28:03;96276.38;;;10.57;85.47
9839;BME280;4958;48.150;11.506;2023-05-03T00:31:04;96279.91;;;10.64;85.34
9839;BME280;4958;48.150;11.506;2023-05-03T00:34:26;96283.94;;;10.67;85.27
9839;BME280;4958;48.150;11.506;2023-05-03T00:37:15;96277.31;;;10.64;85.59
9839;BME280;4958;48.150;11.506;2023-05-03T00:40:05;96280.06;;;10.71;84.51
9839;BME280;4958;48.150;11.506;2023-05-03T00:56:26;96271.38;;;10.56;84.48
9839;BME280;4958;48.150;11.506;2023-05-03T00:58:54;96273.94;;;10.48;85.37
9839;BME280;4958;48.150;11.506;2023-05-03T01:07:02;96265.06;;;10.58;84.78
9839;BME280;4958;48.150;11.506;2023-05-03T01:16:42;96251.25;;;10.51;84.24
9839;BME280;4958;48.150;11.506;2023-05-03T01:26:31;96255.25;;;10.46;85.14
9839;BME280;4958;48.150;11.506;2023-05-03T01:36:04;96264.75;;;10.37;84.81
9839;BME280;4958;48.150;11.506;2023-05-03T01:39:47;96263.44;;;10.33;84.29
9839;BME280;4958;48.150;11.506;2023-05-03T01:55:32;96261.38;;;10.02;85.73
9839;BME280;4958;48.150;11.506;2023-05-03T01:58:28;96265.63;;;10.12;85.76
9839;BME280;4958;48.150;11.506;2023-05-03T02:01:49;96269.66;;;10.14;85.68
9839;BME280;4958;48.150;11.506;2023-05-03T02:08:17;96265.97;;;10.17;86.24
9839;BME280;4958;48.150;11.506;2023-05-03T02:15:00;96266.19;;;10.31;85.69
9839;BME280;4958;48.150;11.506;2023-05-03T02:21:08;96263.78;;;10.38;86.27
9839;BME280;4958;48.150;11.506;2023-05-03T02:27:46;96258.63;;;10.46;85.65
9839;BME280;4958;48.150;11.506;2023-05-03T02:31:06;96265.88;;;10.34;85.53
9839;BME280;4958;48.150;11.506;2023-05-03T02:37:30;96270.19;;;10.42;85.78
9839;BME280;4958;48.150;11.506;2023-05-03T02:51:04;96262.44;;;10.26;85.97
9839;BME280;4958;48.150;11.506;2023-05-03T02:54:01;96269.88;;;10.29;86.48
9839;BME280;4958;48.150;11.506;2023-05-03T02:56:51;96260.38;;;10.29;86.54
9839;BME280;4958;48.150;11.506;2023-05-03T03:03:10;96270.22;;;10.34;86.87
9839;BME280;4958;48.150;11.506;2023-05-03T03:07:00;96264.56;;;10.30;87.46
9839;BME280;4958;48.150;11.506;2023-05-03T03:09:32;96270.53;;;10.39;87.81
9839;BME280;4958;48.150;11.506;2023-05-03T03:12:58;96275.69;;;10.47;87.38
9839;BME280;4958;48.150;11.506;2023-05-03T03:26:33;96266.19;;;10.48;88.90
9839;BME280;4958;48.150;11.506;2023-05-03T03:32:52;96272.34;;;10.55;89.01
9839;BME280;4958;48.150;11.506;2023-05-03T03:42:45;96280.69;;;10.49;91.16
9839;BME280;4958;48.150;11.506;2023-05-03T03:46:06;96279.84;;;10.40;92.68
9839;BME280;4958;48.150;11.506;2023-05-03T03:52:50;96277.78;;;10.35;92.34
9839;BME280;4958;48.150;11.506;2023-05-03T03:58:01;96279.28;;;10.12;93.87
9839;BME280;4958;48.150;11.506;2023-05-03T04:02:59;96283.50;;;10.21;92.80
9839;BME280;4958;48.150;11.506;2023-05-03T04:06:08;96289.63;;;10.20;91.70
9839;BME280;4958;48.150;11.506;2023-05-03T04:12:30;96288.03;;;10.19;92.92
9839;BME280;4958;48.150;11.506;2023-05-03T04:15:42;96286.25;;;10.20;92.52
9839;BME280;4958;48.150;11.506;2023-05-03T04:39:06;96297.53;;;10.19;92.74
9839;BME280;4958;48.150;11.506;2023-05-03T04:49:16;96306.75;;;10.03;93.79
9839;BME280;4958;48.150;11.506;2023-05-03T05:49:37;96347.59;;;10.07;100.00
9839;BME280;4958;48.150;11.506;2023-05-03T05:51:08;96347.66;;;10.15;100.00
9839;BME280;4958;48.150;11.506;2023-05-03T05:57:56;96343.09;;;10.09;100.00
9839;BME280;4958;48.150;11.506;2023-05-03T06:21:53;96361.00;;;10.60;100.00
9839;BME280;4958;48.150;11.506;2023-05-03T06:32:06;96366.41;;;10.41;100.00
9839;BME280;4958;48.150;11.506;2023-05-03T06:37:49;96363.84;;;10.41;100.00
9839;BME280;4958;48.150;11.506;2023-05-03T07:02:14;96374.72;;;10.69;100.00
9839;BME280;4958;48.150;11.506;2023-05-03T07:05:00;96381.97;;;10.82;100.00
9839;BME280;4958;48.150;11.506;2023-05-03T07:08:32;96377.16;;;10.87;100.00
9839;BME280;4958;48.150;11.506;2023-05-03T07:10:37;96382.50;;;10.93;100.00
9839;BME280;4958;48.150;11.506;2023-05-03T07:13:39;96380.06;;;11.00;100.00
9839;BME280;4958;48.150;11.506;2023-05-03T07:16:06;96375.91;;;11.07;99.76
9839;BME280;4958;48.150;11.506;2023-05-03T07:18:47;96376.53;;;11.01;99.82
9839;BME280;4958;48.150;11.506;2023-05-03T07:21:34;96367.38;;;11.06;99.25
9839;BME280;4958;48.150;11.506;2023-05-03T07:24:30;96369.47;;;11.11;97.82
9839;BME280;4958;48.150;11.506;2023-05-03T07:27:05;96371.06;;;11.20;97.13
9839;BME280;4958;48.150;11.506;2023-05-03T07:30:31;96360.28;;;11.25;96.10
9839;BME280;4958;48.150;11.506;2023-05-03T07:40:34;96360.78;;;10.96;98.56
9839;BME280;4958;48.150;11.506;2023-05-03T07:47:21;96380.22;;;10.82;100.00
9839;BME280;4958;48.150;11.506;2023-05-03T07:57:21;96364.94;;;11.05;100.00
9839;BME280;4958;48.150;11.506;2023-05-03T08:03:32;96361.88;;;11.18;100.00
9839;BME280;4958;48.150;11.506;2023-05-03T08:06:32;96358.81;;;11.38;100.00
9839;BME280;4958;48.150;11.506;2023-05-03T08:09:34;96357.53;;;11.42;100.00
9839;BME280;4958;48.150;11.506;2023-05-03T08:12:31;96358.97;;;11.37;100.00
9839;BME280;4958;48.150;11.506;2023-05-03T08:15:02;96352.38;;;11.26;100.00
9839;BME280;4958;48.150;11.506;2023-05-03T08:41:30;96344.63;;;11.67;99.47
9839;BME280;4958;48.150;11.506;2023-05-03T08:44:53;96351.06;;;11.71;98.10
9839;BME280;4958;48.150;11.506;2023-05-03T08:47:51;96346.06;;;11.86;99.59
9839;BME280;4958;48.150;11.506;2023-05-03T08:50:41;96346.63;;;12.12;98.88
9839;BME280;4958;48.150;11.506;2023-05-03T08:53:12;96341.84;;;12.32;97.14
9839;BME280;4958;48.150;11.506;2023-05-03T08:55:44;96342.22;;;12.52;95.55
9839;BME280;4958;48.150;11.506;2023-05-03T09:05:34;96350.03;;;12.43;93.29
9839;BME280;4958;48.150;11.506;2023-05-03T09:12:01;96354.16;;;12.84;92.53
9839;BME280;4958;48.150;11.506;2023-05-03T09:22:05;96354.50;;;12.80;93.94
9839;BME280;4958;48.150;11.506;2023-05-03T09:25:22;96361.50;;;12.95;93.93
9839;BME280;4958;48.150;11.506;2023-05-03T09:28:26;96357.84;;;12.89;91.74
9839;BME280;4958;48.150;11.506;2023-05-03T09:31:35;96353.00;;;12.63;90.95
9839;BME280;4958;48.150;11.506;2023-05-03T09:36:52;96361.44;;;12.80;91.58
9839;BME280;4958;48.150;11.506;2023-05-03T09:43:19;96357.78;;;12.97;89.04
9839;BME280;4958;48.150;11.506;2023-05-03T09:49:52;96358.59;;;12.98;90.52
9839;BME280;4958;48.150;11.506;2023-05-03T09:52:33;96361.13;;;13.06;90.44
9839;BME280;4958;48.150;11.506;2023-05-03T09:55:41;96355.44;;;13.33;90.05
9839;BME280;4958;48.150;11.506;2023-05-03T09:58:35;96354.09;;;13.60;89.33
9839;BME280;4958;48.150;11.506;2023-05-03T10:01:20;96349.09;;;13.73;87.67
9839;BME280;4958;48.150;11.506;2023-05-03T10:04:33;96346.69;;;13.72;87.20
9839;BME280;4958;48.150;11.506;2023-05-03T10:07:24;96345.34;;;13.91;86.48
9839;BME280;4958;48.150;11.506;2023-05-03T10:10:33;96345.91;;;14.01;82.28
9839;BME280;4958;48.150;11.506;2023-05-03T10:22:32;96337.75;;;15.76;73.92
9839;BME280;4958;48.150;11.506;2023-05-03T10:25:29;96334.03;;;15.92;73.20
9839;BME280;4958;48.150;11.506;2023-05-03T10:35:08;96324.97;;;16.15;71.34
9839;BME280;4958;48.150;11.506;2023-05-03T10:37:52;96325.16;;;16.14;72.75
9839;BME280;4958;48.150;11.506;2023-05-03T10:40:47;96327.31;;;16.04;70.18
9839;BME280;4958;48.150;11.506;2023-05-03T10:43:41;96318.19;;;16.14;69.94
9839;BME280;4958;48.150;11.506;2023-05-03T10:47:07;96321.31;;;16.51;70.09
9839;BME280;4958;48.150;11.506;2023-05-03T10:53:58;96321.66;;;16.41;70.09
9839;BME280;4958;48.150;11.506;2023-05-03T10:56:58;96313.31;;;16.52;69.84
9839;BME280;4958;48.150;11.506;2023-05-03T10:59:54;96315.13;;;16.58;69.84
9839;BME280;4958;48.150;11.506;2023-05-03T11:02:39;96309.72;;;16.53;70.11
9839;BME280;4958;48.150;11.506;2023-05-03T11:05:35;96302.72;;;16.54;69.68
9839;BME280;4958;48.150;11.506;2023-05-03T11:08:24;96308.22;;;16.85;68.80
9839;BME280;4958;48.150;11.506;2023-05-03T11:11:10;96307.06;;;17.21;66.84
9839;BME280;4958;48.150;11.506;2023-05-03T11:13:40;96305.84;;;17.23;67.12
9839;BME280;4958;48.150;11.506;2023-05-03T11:16:15;96311.28;;;17.48;66.62
9839;BME280;4958;48.150;11.506;2023-05-03T11:18:58;96305.25;;;17.41;66.89
9839;BME280;4958;48.150;11.506;2023-05-03T11:24:36;96301.06;;;17.47;67.33
9839;BME280;4958;48.150;11.506;2023-05-03T11:27:13;96303.06;;;17.32;66.67
9839;BME280;4958;48.150;11.506;2023-05-03T11:29:40;96305.44;;;17.40;65.94
9839;BME280;4958;48.150;11.506;2023-05-03T11:32:09;96302.84;;;17.53;65.90
9839;BME280;4958;48.150;11.506;2023-05-03T11:34:43;96291.41;;;17.60;63.83
9839;BME280;4958;48.150;11.506;2023-05-03T11:37:25;96299.81;;;17.63;65.01
9839;BME280;4958;48.150;11.506;2023-05-03T11:40:02;96292.22;;;17.74;64.88
9839;BME280;4958;48.150;11.506;2023-05-03T11:43:05;96292.41;;;17.79;64.81
9839;BME280;4958;48.150;11.506;2023-05-03T11:45:56;96288.34;;;17.97;62.32
9839;BME280;4958;48.150;11.506;2023-05-03T11:48:27;96284.91;;;18.09;61.68
9839;BME280;4958;48.150;11.506;2023-05-03T11:51:06;96277.50;;;18.06;61.43
9839;BME280;4958;48.150;11.506;2023-05-03T11:54:07;96275.66;;;18.20;59.71
9839;BME280;4958;48.150;11.506;2023-05-03T11:56:41;96275.03;;;18.24;62.62
9839;BME280;4958;48.150;11.506;2023-05-03T11:59:42;96270.19;;;18.28;62.09
9839;BME280;4958;48.150;11.506;2023-05-03T12:02:21;96271.31;;;18.45;62.24
9839;BME280;4958;48.150;11.506;2023-05-03T12:04:51;96271.06;;;18.60;61.58
9839;BME280;4958;48.150;11.506;2023-05-03T12:07:39;96271.56;;;18.75;60.92
9839;BME280;4958;48.150;11.506;2023-05-03T12:10:19;96264.88;;;18.86;59.25
9839;BME280;4958;48.150;11.506;2023-05-03T12:12:55;96260.00;;;18.96;59.08
9839;BME280;4958;48.150;11.506;2023-05-03T12:15:40;96260.16;;;19.01;58.65
9839;BME280;4958;48.150;11.506;2023-05-03T12:18:12;96257.44;;;19.14;58.92
9839;BME280;4958;48.150;11.506;2023-05-03T12:20:39;96262.13;;;19.30;57.26
9839;BME280;4958;48.150;11.506;2023-05-03T12:23:19;96253.41;;;19.18;54.89
9839;BME280;4958;48.150;11.506;2023-05-03T12:25:52;96256.84;;;19.12;56.44
9839;BME280;4958;48.150;11.506;2023-05-03T12:31:03;96252.63;;;19.11;55.15
9839;BME280;4958;48.150;11.506;2023-05-03T12:32:17;96259.47;;;19.37;55.28
9839;BME280;4958;48.150;11.506;2023-05-03T12:35:07;96252.25;;;19.32;55.03
9839;BME280;4958;48.150;11.506;2023-05-03T12:40:44;96243.91;;;19.67;52.36
9839;BME280;4958;48.150;11.506;2023-05-03T12:43:20;96240.72;;;19.65;50.81
9839;BME280;4958;48.150;11.506;2023-05-03T12:46:01;96228.41;;;19.47;51.83
9839;BME280;4958;48.150;11.506;2023-05-03T12:48:42;96234.91;;;19.20;51.21
9839;BME280;4958;48.150;11.506;2023-05-03T12:51:43;96229.22;;;19.05;50.69
9839;BME280;4958;48.150;11.506;2023-05-03T12:54:14;96234.31;;;19.18;51.57
9839;BME280;4958;48.150;11.506;2023-05-03T12:57:03;96228.50;;;19.41;51.74
9839;BME280;4958;48.150;11.506;2023-05-03T13:02:29;96216.97;;;19.85;48.48
9839;BME280;4958;48.150;11.506;2023-05-03T13:05:36;96209.81;;;19.98;48.88
9839;BME280;4958;48.150;11.506;2023-05-03T13:08:11;96210.31;;;19.89;46.56
9839;BME280;4958;48.150;11.506;2023-05-03T13:11:11;96205.06;;;19.89;48.02
9839;BME280;4958;48.150;11.506;2023-05-03T13:14:15;96201.22;;;19.91;47.76
9839;BME280;4958;48.150;11.506;2023-05-03T13:16:54;96197.63;;;19.74;47.32
9839;BME280;4958;48.150;11.506;2023-05-03T13:19:26;96196.22;;;19.72;48.39
9839;BME280;4958;48.150;11.506;2023-05-03T13:21:54;96188.03;;;19.68;47.79
9839;BME280;4958;48.150;11.506;2023-05-03T13:24:20;96199.06;;;19.70;48.23
9839;BME280;4958;48.150;11.506;2023-05-03T13:26:47;96197.41;;;19.76;47.09
9839;BME280;4958;48.150;11.506;2023-05-03T13:29:13;96190.84;;;19.85;47.25
9839;BME280;4958;48.150;11.506;2023-05-03T13:31:50;96189.91;;;19.97;48.16
9839;BME280;4958;48.150;11.506;2023-05-03T13:34:17;96178.94;;;19.89;47.36
9839;BME280;4958;48.150;11.506;2023-05-03T13:53:01;96153.78;;;19.58;46.82
9839;BME280;4958;48.150;11.506;2023-05-03T13:55:40;96169.88;;;19.91;46.88
9839;BME280;4958;48.150;11.506;2023-05-03T13:58:37;96165.75;;;20.14;47.21
9839;BME280;4958;48.150;11.506;2023-05-03T14:01:43;96163.19;;;19.95;49.01
9839;BME280;4958;48.150;11.506;2023-05-03T14:04:37;96169.81;;;19.43;49.89
9839;BME280;4958;48.150;11.506;2023-05-03T14:07:16;96176.22;;;18.79;50.21
9839;BME280;4958;48.150;11.506;2023-05-03T14:10:13;96171.38;;;18.51;50.45
9839;BME280;4958;48.150;11.506;2023-05-03T14:12:43;96178.84;;;18.10;48.56
9839;BME280;4958;48.150;11.506;2023-05-03T14:15:37;96178.72;;;17.98;49.12
9839;BME280;4958;48.150;11.506;2023-05-03T14:18:29;96181.53;;;17.97;50.30
9839;BME280;4958;48.150;11.506;2023-05-03T14:21:05;96175.72;;;17.94;50.32
9839;BME280;4958;48.150;11.506;2023-05-03T14:23:53;96169.06;;;18.05;50.59
9839;BME280;4958;48.150;11.506;2023-05-03T14:30:24;96154.97;;;18.13;49.14
9839;BME280;4958;48.150;11.506;2023-05-03T14:33:19;96157.63;;;18.38;49.70
9839;BME280;4958;48.150;11.506;2023-05-03T14:36:01;96152.47;;;18.62;48.60
9839;BME280;4958;48.150;11.506;2023-05-03T14:38:37;96146.00;;;18.90;48.35
9839;BME280;4958;48.150;11.506;2023-05-03T14:41:06;96141.41;;;19.10;47.39
9839;BME280;4958;48.150;11.506;2023-05-03T14:44:02;96136.91;;;19.17;45.69
9839;BME280;4958;48.150;11.506;2023-05-03T14:47:10;96136.69;;;19.01;44.06
9839;BME280;4958;48.150;11.506;2023-05-03T14:50:28;96131.47;;;19.01;43.85
9839;BME280;4958;48.150;11.506;2023-05-03T14:53:10;96138.94;;;18.97;44.07
9839;BME280;4958;48.150;11.506;2023-05-03T14:56:08;96133.06;;;19.02;44.70
9839;BME280;4958;48.150;11.506;2023-05-03T15:01:40;96126.19;;;19.25;44.66
9839;BME280;4958;48.150;11.506;2023-05-03T15:04:33;96128.72;;;19.32;45.78
9839;BME280;4958;48.150;11.506;2023-05-03T15:07:05;96128.22;;;19.42;45.62
9839;BME280;4958;48.150;11.506;2023-05-03T15:09:53;96136.28;;;19.22;46.93
9839;BME280;4958;48.150;11.506;2023-05-03T15:12:29;96124.00;;;19.04;46.51
9839;BME280;4958;48.150;11.506;2023-05-03T15:15:32;96134.78;;;18.89;46.47
9839;BME280;4958;48.150;11.506;2023-05-03T15:18:07;96129.69;;;18.76;47.19
9839;BME280;4958;48.150;11.506;2023-05-03T15:20:39;96140.50;;;18.48;48.47
9839;BME280;4958;48.150;11.506;2023-05-03T15:33:03;96140.97;;;17.69;51.27
9839;BME280;4958;48.150;11.506;2023-05-03T15:33:27;96140.44;;;17.47;53.00
9839;BME280;4958;48.150;11.506;2023-05-03T15:36:38;96145.84;;;17.46;52.96
9839;BME280;4958;48.150;11.506;2023-05-03T15:43:45;96141.25;;;17.92;52.01
9839;BME280;4958;48.150;11.506;2023-05-03T15:46:40;96138.59;;;18.06;51.26
9839;BME280;4958;48.150;11.506;2023-05-03T15:49:35;96146.28;;;18.25;50.90
9839;BME280;4958;48.150;11.506;2023-05-03T15:58:51;96144.00;;;18.36;49.77
9839;BME280;4958;48.150;11.506;2023-05-03T16:01:26;96145.09;;;18.21;49.84
9839;BME280;4958;48.150;11.506;2023-05-03T16:04:30;96145.59;;;18.05;51.04
9839;BME280;4958;48.150;11.506;2023-05-03T16:07:59;96139.69;;;18.23;51.31
9839;BME280;4958;48.150;11.506;2023-05-03T16:15:35;96138.72;;;18.17;51.56
9839;BME280;4958;48.150;11.506;2023-05-03T16:27:31;96136.09;;;17.79;51.74
9839;BME280;4958;48.150;11.506;2023-05-03T16:30:17;96128.28;;;17.79;52.33
9839;BME280;4958;48.150;11.506;2023-05-03T16:32:55;96124.47;;;17.82;51.54
9839;BME280;4958;48.150;11.506;2023-05-03T16:35:36;96116.75;;;17.69;51.75
9839;BME280;4958;48.150;11.506;2023-05-03T16:38:29;96127.75;;;17.57;51.69
9839;BME280;4958;48.150;11.506;2023-05-03T16:41:34;96130.53;;;17.63;51.42
9839;BME280;4958;48.150;11.506;2023-05-03T16:45:27;96128.75;;;17.56;51.34
9839;BME280;4958;48.150;11.506;2023-05-03T16:47:36;96121.34;;;17.53;51.15
9839;BME280;4958;48.150;11.506;2023-05-03T16:53:56;96120.41;;;17.48;50.98
9839;BME280;4958;48.150;11.506;2023-05-03T16:56:50;96125.41;;;17.43;51.08
9839;BME280;4958;48.150;11.506;2023-05-03T16:59:39;96127.41;;;17.41;50.73
9839;BME280;4958;48.150;11.506;2023-05-03T17:02:15;96126.03;;;17.38;51.07
9839;BME280;4958;48.150;11.506;2023-05-03T17:04:49;96128.47;;;17.20;49.98
9839;BME280;4958;48.150;11.506;2023-05-03T17:08:07;96117.69;;;17.16;50.73
9839;BME280;4958;48.150;11.506;2023-05-03T17:10:38;96120.69;;;17.13;51.28
9839;BME280;4958;48.150;11.506;2023-05-03T17:13:26;96113.72;;;17.07;50.53
9839;BME280;4958;48.150;11.506;2023-05-03T17:25:43;96128.94;;;16.84;50.61
9839;BME280;4958;48.150;11.506;2023-05-03T17:28:41;96132.53;;;16.76;51.12
9839;BME280;4958;48.150;11.506;2023-05-03T17:31:12;96125.38;;;16.72;51.26
9839;BME280;4958;48.150;11.506;2023-05-03T17:34:01;96129.94;;;16.76;51.43
9839;BME280;4958;48.150;11.506;2023-05-03T17:36:45;96130.38;;;16.73;51.58
9839;BME280;4958;48.150;11.506;2023-05-03T17:39:56;96127.34;;;16.76;51.88
9839;BME280;4958;48.150;11.506;2023-05-03T17:43:26;96128.16;;;16.77;52.28
9839;BME280;4958;48.150;11.506;2023-05-03T17:46:05;96128.34;;;16.75;52.65
9839;BME280;4958;48.150;11.506;2023-05-03T17:51:45;96127.91;;;16.39;53.09
9839;BME280;4958;48.150;11.506;2023-05-03T17:54:18;96132.53;;;16.30;53.28
9839;BME280;4958;48.150;11.506;2023-05-03T17:57:15;96127.94;;;16.32;53.86
9839;BME280;4958;48.150;11.506;2023-05-03T18:00:03;96135.72;;;16.39;54.04
9839;BME280;4958;48.150;11.506;2023-05-03T18:03:09;96142.75;;;16.51;54.10
9839;BME280;4958;48.150;11.506;2023-05-03T18:06:23;96141.34;;;16.49;53.78
9839;BME280;4958;48.150;11.506;2023-05-03T18:09:48;96147.09;;;16.38;53.38
9839;BME280;4958;48.150;11.506;2023-05-03T18:12:30;96134.72;;;16.27;52.90
9839;BME280;4958;48.150;11.506;2023-05-03T18:15:01;96141.50;;;16.28;53.37
9839;BME280;4958;48.150;11.506;2023-05-03T18:17:44;96142.50;;;16.27;52.88
9839;BME280;4958;48.150;11.506;2023-05-03T18:20:18;96136.91;;;16.23;53.39
9839;BME280;4958;48.150;11.506;2023-05-03T18:22:57;96132.28;;;16.18;54.06
9839;BME280;4958;48.150;11.506;2023-05-03T18:25:39;96134.50;;;16.15;53.55
9839;BME280;4958;48.150;11.506;2023-05-03T18:28:25;96134.72;;;16.13;54.49
9839;BME280;4958;48.150;11.506;2023-05-03T18:31:12;96142.69;;;16.18;54.57
9839;BME280;4958;48.150;11.506;2023-05-03T18:37:19;96136.69;;;16.11;54.68
9839;BME280;4958;48.150;11.506;2023-05-03T18:40:06;96139.28;;;16.05;54.86
9839;BME280;4958;48.150;11.506;2023-05-03T18:42:42;96141.47;;;16.08;54.88
9839;BME280;4958;48.150;11.506;2023-05-03T18:45:23;96145.84;;;15.94;55.01
9839;BME280;4958;48.150;11.506;2023-05-03T18:48:03;96147.44;;;15.88;55.24
9839;BME280;4958;48.150;11.506;2023-05-03T18:50:41;96152.78;;;15.80;55.16
9839;BME280;4958;48.150;11.506;2023-05-03T18:53:22;96159.97;;;15.78;55.44
9839;BME280;4958;48.150;11.506;2023-05-03T18:56:08;96162.13;;;15.68;55.88
9839;BME280;4958;48.150;11.506;2023-05-03T18:58:48;96169.31;;;15.66;56.67
9839;BME280;4958;48.150;11.506;2023-05-03T19:01:33;96165.91;;;15.66;56.70
9839;BME280;4958;48.150;11.506;2023-05-03T19:04:26;96169.13;;;15.68;56.99
9839;BME280;4958;48.150;11.506;2023-05-03T19:07:10;96177.59;;;15.48;57.90
9839;BME280;4958;48.150;11.506;2023-05-03T19:12:58;96177.53;;;15.42;59.18
9839;BME280;4958;48.150;11.506;2023-05-03T19:21:40;96183.97;;;15.11;61.94
9839;BME280;4958;48.150;11.506;2023-05-03T19:24:35;96179.59;;;15.12;62.68
9839;BME280;4958;48.150;11.506;2023-05-03T19:27:18;96191.13;;;15.09;63.08
9839;BME280;4958;48.150;11.506;2023-05-03T19:29:59;96187.69;;;15.02;64.29
9839;BME280;4958;48.150;11.506;2023-05-03T19:32:29;96185.31;;;15.01;64.62
9839;BME280;4958;48.150;11.506;2023-05-03T19:35:13;96179.09;;;15.02;64.82
9839;BME280;4958;48.150;11.506;2023-05-03T19:44:21;96176.78;;;14.85;67.04
9839;BME280;4958;48.150;11.506;2023-05-03T19:47:12;96178.63;;;14.92;66.37
9839;BME280;4958;48.150;11.506;2023-05-03T19:49:58;96184.63;;;14.92;67.13
9839;BME280;4958;48.150;11.506;2023-05-03T19:56:19;96188.94;;;14.85;68.48
9839;BME280;4958;48.150;11.506;2023-05-03T19:59:35;96178.56;;;14.78;68.87
9839;BME280;4958;48.150;11.506;2023-05-03T20:02:02;96182.13;;;14.77;68.64
9839;BME280;4958;48.150;11.506;2023-05-03T20:04:51;96182.44;;;14.68;69.52
9839;BME280;4958;48.150;11.506;2023-05-03T20:07:46;96185.41;;;14.65;69.82
9839;BME280;4958;48.150;11.506;2023-05-03T20:13:27;96186.59;;;14.62;69.74
9839;BME280;4958;48.150;11.506;2023-05-03T20:16:03;96191.16;;;14.60;69.70
9839;BME280;4958;48.150;11.506;2023-05-03T20:18:36;96189.13;;;14.56;70.40
9839;BME280;4958;48.150;11.506;2023-05-03T20:24:49;96188.69;;;14.52;70.46
9839;BME280;4958;48.150;11.506;2023-05-03T20:29:05;96180.84;;;14.45;70.94
9839;BME280;4958;48.150;11.506;2023-05-03T20:40:58;96188.22;;;14.42;70.59
9839;BME280;4958;48.150;11.506;2023-05-03T20:43:53;96180.63;;;14.40;71.21
9839;BME280;4958;48.150;11.506;2023-05-03T20:46:33;96181.41;;;14.41;71.30
9839;BME280;4958;48.150;11.506;2023-05-03T20:49:15;96190.50;;;14.37;71.62
9839;BME280;4958;48.150;11.506;2023-05-03T20:53:33;96184.72;;;14.35;71.45
9839;BME280;4958;48.150;11.506;2023-05-03T20:56:08;96181.94;;;14.36;71.68
9839;BME280;4958;48.150;11.506;2023-05-03T20:58:48;96186.44;;;14.28;71.07
9839;BME280;4958;48.150;11.506;2023-05-03T21:01:27;96182.81;;;14.22;70.72
9839;BME280;4958;48.150;11.506;2023-05-03T21:04:13;96185.75;;;14.19;70.68
9839;BME280;4958;48.150;11.506;2023-05-03T21:07:02;96185.69;;;14.12;70.61
9839;BME280;4958;48.150;11.506;2023-05-03T21:09:32;96183.72;;;14.14;69.74
9839;BME280;4958;48.150;11.506;2023-05-03T21:12:06;96178.09;;;14.11;68.51
9839;BME280;4958;48.150;11.506;2023-05-03T21:14:44;96178.47;;;14.08;68.84
9839;BME280;4958;48.150;11.506;2023-05-03T21:17:24;96171.63;;;14.00;68.90
9839;BME280;4958;48.150;11.506;2023-05-03T21:19:54;96173.78;;;13.97;69.13
9839;BME280;4958;48.150;11.506;2023-05-03T21:22:29;96172.97;;;13.96;69.36
9839;BME280;4958;48.150;11.506;2023-05-03T21:25:19;96167.09;;;13.88;69.06
9839;BME280;4958;48.150;11.506;2023-05-03T21:31:23;96155.50;;;13.83;68.96
9839;BME280;4958;48.150;11.506;2023-05-03T21:34:13;96165.78;;;13.77;68.76
9839;BME280;4958;48.150;11.506;2023-05-03T21:37:14;96158.09;;;13.69;68.98
9839;BME280;4958;48.150;11.506;2023-05-03T21:40:26;96148.91;;;13.66;68.88
9839;BME280;4958;48.150;11.506;2023-05-03T21:43:08;96154.66;;;13.62;68.58
9839;BME280;4958;48.150;11.506;2023-05-03T21:48:50;96147.69;;;13.62;68.42
9839;BME280;4958;48.150;11.506;2023-05-03T21:51:29;96142.53;;;13.62;68.12
9839;BME280;4958;48.150;11.506;2023-05-03T21:54:13;96149.66;;;13.60;68.68
9839;BME280;4958;48.150;11.506;2023-05-03T21:57:03;96151.00;;;13.56;68.46
9839;BME280;4958;48.150;11.506;2023-05-03T22:00:08;96147.78;;;13.54;68.43
9839;BME280;4958;48.150;11.506;2023-05-03T22:02:41;96152.16;;;13.54;68.21
9839;BME280;4958;48.150;11.506;2023-05-03T22:05:15;96145.19;;;13.54;67.62
9839;BME280;4958;48.150;11.506;2023-05-03T22:08:09;96144.41;;;13.54;68.01
9839;BME280;4958;48.150;11.506;2023-05-03T22:10:47;96140.38;;;13.51;67.97
9839;BME280;4958;48.150;11.506;2023-05-03T22:13:28;96135.38;;;13.49;68.09
9839;BME280;4958;48.150;11.506;2023-05-03T22:16:08;96137.97;;;13.49;68.36
9839;BME280;4958;48.150;11.506;2023-05-03T22:19:13;96137.25;;;13.56;68.12
9839;BME280;4958;48.150;11.506;2023-05-03T22:21:47;96135.31;;;13.58;68.17
9839;BME280;4958;48.150;11.506;2023-05-03T22:27:44;96130.97;;;13.43;69.17
9839;BME280;4958;48.150;11.506;2023-05-03T22:30:11;96136.22;;;13.35;69.22
9839;BME280;4958;48.150;11.506;2023-05-03T22:32:43;96135.88;;;13.38;69.76
9839;BME280;4958;48.150;11.506;2023-05-03T22:35:21;96133.19;;;13.46;69.92
9839;BME280;4958;48.150;11.506;2023-05-03T22:38:06;96136.47;;;13.55;69.86
9839;BME280;4958;48.150;11.506;2023-05-03T22:40:33;96135.56;;;13.48;70.34
9839;BME280;4958;48.150;11.506;2023-05-03T22:42:59;96132.75;;;13.43;70.69
9839;BME280;4958;48.150;11.506;2023-05-03T22:45:26;96129.72;;;13.39;71.20
9839;BME280;4958;48.150;11.506;2023-05-03T22:48:00;96127.94;;;13.40;71.40
9839;BME280;4958;48.150;11.506;2023-05-03T22:50:27;96132.25;;;13.54;70.92
9839;BME280;4958;48.150;11.506;2023-05-03T22:53:26;96129.75;;;13.61;70.62
9839;BME280;4958;48.150;11.506;2023-05-03T22:55:56;96132.09;;;13.56;70.74
9839;BME280;4958;48.150;11.506;2023-05-03T22:58:39;96124.34;;;13.41;71.77
9839;BME280;4958;48.150;11.506;2023-05-03T23:01:09;96132.03;;;13.34;71.90
9839;BME280;4958;48.150;11.506;2023-05-03T23:03:36;96123.44;;;13.48;71.04
9839;BME280;4958;48.150;11.506;2023-05-03T23:06:07;96123.03;;;13.45;71.69
9839;BME280;4958;48.150;11.506;2023-05-03T23:08:52;96122.75;;;13.40;71.48
9839;BME280;4958;48.150;11.506;2023-05-03T23:12:06;96115.44;;;13.29;71.90
9839;BME280;4958;48.150;11.506;2023-05-03T23:14:28;96126.84;;;13.34;72.50
9839;BME280;4958;48.150;11.506;2023-05-03T23:16:56;96123.00;;;13.30;72.27
9839;BME280;4958;48.150;11.506;2023-05-03T23:19:26;96126.84;;;13.34;72.36